createdAt,value
2023-03-18T00:00:46.155Z,99979.63
2023-03-18T00:03:39.058Z,99981.06
2023-03-18T00:06:27.943Z,99973.28
2023-03-18T00:09:17.662Z,99965.28
2023-03-18T00:12:08.286Z,99963.25
2023-03-18T00:14:57.256Z,99958.28
2023-03-18T00:17:48.478Z,99967.72
2023-03-18T00:20:51.094Z,99975.78
2023-03-18T00:23:40.748Z,99962.84
2023-03-18T00:26:30.184Z,99982.13
2023-03-18T00:29:18.900Z,99961.63
2023-03-18T00:32:09.064Z,99965.28
2023-03-18T00:35:01.203Z,99967.94
2023-03-18T00:37:49.813Z,99961.97
2023-03-18T00:40:53.432Z,99967.13
2023-03-18T00:43:50.288Z,99980.69
2023-03-18T00:46:39.656Z,99972.28
2023-03-18T00:49:28.346Z,99960.38
2023-03-18T00:52:19.608Z,99956.91
2023-03-18T00:55:09.909Z,99968.38
2023-03-18T00:57:58.529Z,99960.38
2023-03-18T01:00:48.550Z,99956.91
2023-03-18T01:03:37.854Z,99944.81
2023-03-18T01:06:29.306Z,99951.78
2023-03-18T01:09:19.643Z,99944.59
2023-03-18T01:12:12.209Z,99959.59
2023-03-18T01:15:01.251Z,99944.78
2023-03-18T01:17:52.263Z,99944.78
2023-03-18T01:20:41.380Z,99938.56
2023-03-18T01:23:30.933Z,99951.31
2023-03-18T01:26:21.024Z,99942.72
2023-03-18T01:29:10.748Z,99936.53
2023-03-18T01:32:00.366Z,99936.94
2023-03-18T01:34:49.794Z,99931.44
2023-03-18T01:37:38.601Z,99939.84
2023-03-18T01:40:28.651Z,99936.75
2023-03-18T01:43:21.598Z,99931.84
2023-03-18T01:46:41.933Z,99934.31
2023-03-18T01:49:33.968Z,99925.13
2023-03-18T01:52:30.958Z,99926.56
2023-03-18T01:55:21.902Z,99937.25
2023-03-18T01:58:17.202Z,99923.06
2023-03-18T02:01:13.124Z,99931.25
2023-03-18T02:04:02.556Z,99933.75
2023-03-18T02:06:52.688Z,99934.97
2023-03-18T02:09:41.864Z,99941.75
2023-03-18T02:12:33.694Z,99950.19
2023-03-18T02:15:24.277Z,99944.84
2023-03-18T02:18:17.876Z,99947.72
2023-03-18T02:21:17.544Z,99946.50
2023-03-18T02:24:14.837Z,99955.94
2023-03-18T02:27:05.551Z,99951.97
2023-03-18T02:29:59.621Z,99955.50
2023-03-18T02:32:50.923Z,99953.47
2023-03-18T02:35:41.093Z,99961.22
2023-03-18T02:38:29.873Z,99957.97
2023-03-18T02:41:21.063Z,99961.66
2023-03-18T02:44:09.889Z,99965.78
2023-03-18T02:47:04.249Z,99966.59
2023-03-18T02:49:53.118Z,99978.94
2023-03-18T02:52:42.405Z,99985.91
2023-03-18T02:55:31.324Z,99984.47
2023-03-18T02:58:20.021Z,99974.78
2023-03-18T03:01:10.017Z,99974.97
2023-03-18T03:04:01.074Z,99978.28
2023-03-18T03:06:50.635Z,99984.66
2023-03-18T03:09:39.800Z,99996.16
2023-03-18T03:12:28.638Z,99984.06
2023-03-18T03:15:17.388Z,100001.53
2023-03-18T03:18:08.955Z,99997.81
2023-03-18T03:20:58.997Z,99990.41
2023-03-18T03:23:49.000Z,99997.41
2023-03-18T03:26:39.769Z,99997.00
2023-03-18T03:29:29.395Z,100001.13
2023-03-18T03:32:18.588Z,99996.59
2023-03-18T03:35:08.661Z,99999.44
2023-03-18T03:37:58.913Z,100003.56
2023-03-18T03:40:48.009Z,100007.91
2023-03-18T03:43:36.830Z,100010.16
2023-03-18T03:46:26.406Z,100018.34
2023-03-18T03:49:15.269Z,100010.16
2023-03-18T03:52:06.143Z,100027.38
2023-03-18T03:54:56.866Z,100015.06
2023-03-18T03:57:47.056Z,100020.81
2023-03-18T04:00:35.975Z,100016.94
2023-03-18T04:03:25.794Z,100022.47
2023-03-18T04:06:17.309Z,100031.50
2023-03-18T04:09:07.001Z,100030.69
2023-03-18T04:12:00.958Z,100045.69
2023-03-18T04:14:52.490Z,100040.13
2023-03-18T04:17:42.013Z,100048.97
2023-03-18T04:20:33.174Z,100047.31
2023-03-18T04:23:23.884Z,100052.84
2023-03-18T04:26:13.261Z,100044.22
2023-03-18T04:29:05.140Z,100039.69
2023-03-18T04:31:54.615Z,100045.03
2023-03-18T04:34:43.795Z,100035.38
2023-03-18T04:37:37.137Z,100043.59
2023-03-18T04:40:30.464Z,100036.81
2023-03-18T04:43:19.605Z,100045.63
2023-03-18T04:46:10.201Z,100056.94
2023-03-18T04:48:59.433Z,100066.78
2023-03-18T04:51:48.982Z,100051.81
2023-03-18T04:54:39.786Z,100059.84
2023-03-18T04:57:31.714Z,100067.22
2023-03-18T05:00:23.443Z,100065.16
2023-03-18T05:03:15.880Z,100066.00
2023-03-18T05:06:04.946Z,100066.00
2023-03-18T05:08:54.948Z,100072.13
2023-03-18T05:11:43.700Z,100065.16
2023-03-18T05:14:34.158Z,100069.66
2023-03-18T05:17:25.595Z,100068.00
2023-03-18T05:20:17.246Z,100075.81
2023-03-18T05:23:06.072Z,100070.69
2023-03-18T05:25:55.309Z,100076.66
2023-03-18T05:28:44.418Z,100068.44
2023-03-18T05:31:33.148Z,100071.09
2023-03-18T05:34:22.036Z,100066.78
2023-03-18T05:37:14.200Z,100071.31
2023-03-18T05:40:03.239Z,100075.63
2023-03-18T05:42:56.293Z,100080.75
2023-03-18T05:45:45.763Z,100075.00
2023-03-18T05:48:35.391Z,100079.34
2023-03-18T05:51:24.284Z,100078.91
2023-03-18T05:54:16.434Z,100088.56
2023-03-18T05:57:05.128Z,100094.31
2023-03-18T05:59:55.327Z,100094.94
2023-03-18T06:02:44.824Z,100093.47
2023-03-18T06:05:35.088Z,100095.53
2023-03-18T06:08:29.719Z,100097.19
2023-03-18T06:11:20.230Z,100098.81
2023-03-18T06:14:10.182Z,100097.19
2023-03-18T06:16:59.281Z,100096.75
2023-03-18T06:19:48.730Z,100097.19
2023-03-18T06:22:37.849Z,100098.41
2023-03-18T06:25:26.551Z,100099.44
2023-03-18T06:28:20.810Z,100095.53
2023-03-18T06:31:10.902Z,100103.75
2023-03-18T06:34:01.329Z,100094.69
2023-03-18T06:36:50.312Z,100095.75
2023-03-18T06:39:41.180Z,100099.84
2023-03-18T06:42:30.173Z,100096.75
2023-03-18T06:45:21.283Z,100099.66
2023-03-18T06:48:10.523Z,100105.81
2023-03-18T06:50:59.677Z,100102.72
2023-03-18T06:53:53.488Z,100107.84
2023-03-18T06:56:43.167Z,100102.53
2023-03-18T06:59:33.536Z,100114.41
2023-03-18T07:02:25.308Z,100108.28
2023-03-18T07:05:19.490Z,100109.09
2023-03-18T07:08:10.152Z,100114.22
2023-03-18T07:10:58.847Z,100113.22
2023-03-18T07:13:47.684Z,100121.41
2023-03-18T07:16:37.065Z,100119.75
2023-03-18T07:19:29.478Z,100121.81
2023-03-18T07:22:18.362Z,100129.25
2023-03-18T07:25:07.976Z,100129.22
2023-03-18T07:27:56.657Z,100111.56
2023-03-18T07:30:47.659Z,100115.72
2023-03-18T07:33:36.591Z,100113.22
2023-03-18T07:36:28.167Z,100115.72
2023-03-18T07:39:17.092Z,100111.41
2023-03-18T07:42:06.520Z,100112.81
2023-03-18T07:45:01.993Z,100112.63
2023-03-18T07:47:50.984Z,100107.28
2023-03-18T07:50:41.219Z,100106.88
2023-03-18T07:53:31.377Z,100116.50
2023-03-18T07:56:20.985Z,100108.72
2023-03-18T07:59:10.416Z,100120.63
2023-03-18T08:01:59.009Z,100115.28
2023-03-18T08:04:50.964Z,100121.84
2023-03-18T08:07:39.700Z,100123.50
2023-03-18T08:10:30.500Z,100126.38
2023-03-18T08:13:21.287Z,100121.44
2023-03-18T08:16:10.096Z,100119.78
2023-03-18T08:18:59.069Z,100116.47
2023-03-18T08:21:47.993Z,100117.22
2023-03-18T08:24:38.874Z,100119.69
2023-03-18T08:27:29.068Z,100119.91
2023-03-18T08:30:17.911Z,100125.22
2023-03-18T08:33:09.004Z,100120.06
2023-03-18T08:35:59.970Z,100126.63
2023-03-18T08:38:49.948Z,100125.59
2023-03-18T08:41:39.386Z,100127.84
2023-03-18T08:44:29.417Z,100128.66
2023-03-18T08:47:18.126Z,100132.34
2023-03-18T08:50:09.383Z,100134.81
2023-03-18T08:52:58.816Z,100140.97
2023-03-18T08:55:49.167Z,100131.31
2023-03-18T08:58:37.959Z,100133.97
2023-03-18T09:01:28.330Z,100140.59
2023-03-18T09:04:21.087Z,100134.81
2023-03-18T09:07:10.211Z,100136.25
2023-03-18T09:10:00.800Z,100134.59
2023-03-18T09:12:51.966Z,100127.34
2023-03-18T09:15:40.809Z,100125.91
2023-03-18T09:18:31.008Z,100120.38
2023-03-18T09:21:20.278Z,100129.84
2023-03-18T09:24:09.194Z,100127.31
2023-03-18T09:26:59.909Z,100129.41
2023-03-18T09:29:49.292Z,100125.69
2023-03-18T09:32:38.120Z,100126.91
2023-03-18T09:35:29.052Z,100129.00
2023-03-18T09:38:20.887Z,100126.88
2023-03-18T09:41:22.263Z,100130.97
2023-03-18T09:44:16.103Z,100122.69
2023-03-18T09:47:20.023Z,100125.16
2023-03-18T09:50:21.198Z,100123.53
2023-03-18T09:53:20.554Z,100128.63
2023-03-18T09:56:14.213Z,100131.03
2023-03-18T09:59:04.738Z,100130.06
2023-03-18T10:01:58.082Z,100119.84
2023-03-18T10:04:52.362Z,100116.41
2023-03-18T10:07:43.286Z,100118.09
2023-03-18T10:10:37.964Z,100120.41
2023-03-18T10:13:31.822Z,100113.19
2023-03-18T10:16:26.405Z,100116.53
2023-03-18T10:19:15.414Z,100122.88
2023-03-18T10:22:15.326Z,100130.38
2023-03-18T10:25:13.889Z,100136.19
2023-03-18T10:28:17.070Z,100124.25
2023-03-18T10:31:17.884Z,100125.91
2023-03-18T10:37:21.210Z,100139.09
2023-03-18T10:40:17.993Z,100128.84
2023-03-18T10:43:17.397Z,100128.03
2023-03-18T10:46:08.021Z,100135.84
2023-03-18T10:48:59.129Z,100130.50
2023-03-18T10:51:54.051Z,100130.06
2023-03-18T10:54:51.382Z,100140.75
2023-03-18T10:57:44.608Z,100137.25
2023-03-18T11:00:38.212Z,100139.53
2023-03-18T11:03:30.508Z,100130.91
2023-03-18T11:06:25.246Z,100133.75
2023-03-18T11:09:17.566Z,100138.28
2023-03-18T11:20:24.605Z,100135.78
2023-03-18T11:31:55.846Z,100133.53
2023-03-18T11:35:45.307Z,100134.78
2023-03-18T11:38:35.852Z,100141.97
2023-03-18T11:41:28.806Z,100136.84
2023-03-18T13:14:54.151Z,100119.00
2023-03-18T13:17:46.836Z,100112.00
2023-03-18T13:51:56.856Z,100090.59
2023-03-18T14:00:00.137Z,100085.19
2023-03-18T15:01:28.889Z,100054.03
2023-03-18T15:04:21.930Z,100060.59
2023-03-18T15:07:11.244Z,100053.19
2023-03-18T15:10:04.281Z,100054.38
2023-03-18T15:13:04.717Z,100058.25
2023-03-18T15:15:57.285Z,100060.94
2023-03-18T15:18:46.876Z,100063.88
2023-03-18T15:21:36.381Z,100063.22
2023-03-18T15:24:27.845Z,100067.84
2023-03-18T15:27:22.828Z,100060.47
2023-03-18T15:30:26.788Z,100052.31
2023-03-18T15:33:20.088Z,100053.56
2023-03-18T15:36:15.642Z,100064.09
2023-03-18T15:39:04.304Z,100074.97
2023-03-18T15:41:55.599Z,100068.03
2023-03-18T15:44:47.462Z,100073.78
2023-03-18T15:47:38.228Z,100079.94
2023-03-18T15:50:30.314Z,100075.03
2023-03-18T15:53:24.955Z,100078.75
2023-03-18T15:56:20.857Z,100070.09
2023-03-18T15:59:18.938Z,100071.09
2023-03-18T16:02:19.194Z,100082.59
2023-03-18T16:05:09.570Z,100079.09
2023-03-18T16:08:11.089Z,100089.78
2023-03-18T16:11:06.844Z,100082.59
2023-03-18T16:13:55.551Z,100093.59
2023-03-18T16:16:51.830Z,100091.94
2023-03-18T16:19:44.479Z,100091.78
2023-03-18T16:22:36.170Z,100087.28
2023-03-18T16:25:26.685Z,100089.78
2023-03-18T16:31:51.313Z,100098.84
2023-03-18T16:37:45.223Z,100099.25
2023-03-18T16:40:37.227Z,100105.81
2023-03-18T16:43:28.702Z,100106.25
2023-03-18T16:46:24.051Z,100111.59
2023-03-18T16:49:24.335Z,100107.88
2023-03-18T16:52:15.681Z,100114.88
2023-03-18T16:55:06.356Z,100115.72
2023-03-18T16:58:19.941Z,100122.44
2023-03-18T17:01:08.953Z,100122.28
2023-03-18T17:04:07.758Z,100135.00
2023-03-18T17:06:56.645Z,100133.09
2023-03-18T17:09:54.612Z,100147.75
2023-03-18T17:12:57.414Z,100144.47
2023-03-18T17:16:00.574Z,100147.53
2023-03-18T17:18:54.146Z,100139.75
2023-03-18T17:21:43.030Z,100138.72
2023-03-18T17:24:43.845Z,100144.03
2023-03-18T17:27:55.380Z,100146.09
2023-03-18T17:30:46.299Z,100144.47
2023-03-18T17:33:51.359Z,100147.94
2023-03-18T17:43:02.922Z,100161.28
2023-03-18T17:45:54.305Z,100169.91
2023-03-18T17:48:45.415Z,100163.34
2023-03-18T17:51:36.731Z,100163.78
2023-03-18T17:54:27.202Z,100173.63
2023-03-18T17:57:25.006Z,100176.09
2023-03-18T18:00:22.735Z,100172.19
2023-03-18T18:03:22.220Z,100165.38
2023-03-18T18:06:13.397Z,100167.81
2023-03-18T18:09:02.958Z,100163.25
2023-03-18T18:16:10.344Z,100164.47
2023-03-18T18:19:19.277Z,100160.53
2023-03-18T18:22:10.795Z,100154.97
2023-03-18T18:25:13.152Z,100159.09
2023-03-18T18:32:19.686Z,100153.47
2023-03-18T18:35:11.136Z,100164.59
2023-03-18T18:38:00.210Z,100162.13
2023-03-18T18:41:09.291Z,100163.13
2023-03-18T18:51:15.258Z,100165.34
2023-03-18T19:01:45.026Z,100167.66
2023-03-18T19:04:37.256Z,100152.66
2023-03-18T19:15:15.576Z,100160.47
2023-03-18T19:18:11.126Z,100159.84
2023-03-18T19:21:00.761Z,100156.97
2023-03-18T19:23:54.349Z,100158.81
2023-03-18T19:26:43.715Z,100167.44
2023-03-18T19:29:33.958Z,100166.66
2023-03-18T19:32:24.308Z,100164.75
2023-03-18T19:35:17.312Z,100178.13
2023-03-18T19:38:08.425Z,100166.19
2023-03-18T19:40:57.018Z,100170.94
2023-03-18T19:43:45.797Z,100167.63
2023-03-18T19:46:39.030Z,100170.88
2023-03-18T19:49:29.927Z,100171.84
2023-03-18T19:52:22.718Z,100171.22
2023-03-18T19:55:15.334Z,100171.44
2023-03-18T19:58:04.030Z,100177.81
2023-03-18T20:00:53.632Z,100178.03
2023-03-18T20:03:42.472Z,100178.84
2023-03-18T20:06:31.331Z,100181.72
2023-03-18T20:09:21.671Z,100184.59
2023-03-18T20:12:20.982Z,100180.91
2023-03-18T20:15:15.956Z,100178.84
2023-03-18T20:18:09.323Z,100183.41
2023-03-18T20:24:09.151Z,100174.72
2023-03-18T20:27:02.381Z,100175.78
2023-03-18T20:43:03.059Z,100168.88
2023-03-18T20:50:17.112Z,100179.06
2023-03-18T20:53:39.493Z,100176.66
2023-03-18T21:00:34.090Z,100157.16
2023-03-18T21:35:44.399Z,100184.41
2023-03-18T21:38:34.920Z,100180.78
2023-03-18T21:41:25.552Z,100180.91
2023-03-18T21:44:15.857Z,100176.78
2023-03-18T21:47:04.889Z,100175.97
2023-03-18T21:49:53.724Z,100178.81
2023-03-18T21:52:42.485Z,100170.22
2023-03-18T21:55:31.267Z,100169.63
2023-03-18T21:58:22.417Z,100172.91
2023-03-18T22:01:17.802Z,100170.69
2023-03-18T22:04:06.960Z,100173.38
2023-03-18T22:06:55.797Z,100171.72
2023-03-18T22:09:45.109Z,100176.69
2023-03-18T22:12:34.625Z,100176.06
2023-03-18T22:15:44.080Z,100186.34
2023-03-18T22:18:35.785Z,100183.25
2023-03-18T22:21:26.335Z,100180.59
2023-03-18T22:24:15.863Z,100185.53
2023-03-18T22:27:04.518Z,100188.19
2023-03-18T22:29:54.501Z,100185.53
2023-03-18T22:32:44.563Z,100189.25
2023-03-18T22:35:35.406Z,100177.31
2023-03-18T22:38:25.390Z,100176.91
2023-03-18T22:41:20.544Z,100180.59
2023-03-18T22:44:17.009Z,100177.53
2023-03-18T22:47:05.915Z,100184.72
2023-03-18T22:49:54.810Z,100182.47
2023-03-18T22:52:45.231Z,100174.03
2023-03-18T22:55:36.296Z,100179.63
2023-03-18T22:58:27.466Z,100175.72
2023-03-18T23:01:17.855Z,100176.94
2023-03-18T23:04:07.405Z,100178.16
2023-03-18T23:06:56.650Z,100176.69
2023-03-18T23:09:56.548Z,100174.00
2023-03-18T23:12:46.126Z,100178.16
2023-03-18T23:15:35.323Z,100170.31
2023-03-18T23:18:27.572Z,100175.66
2023-03-18T23:21:18.193Z,100172.00
2023-03-18T23:24:07.520Z,100175.66
2023-03-18T23:26:59.166Z,100165.63
2023-03-18T23:29:47.833Z,100161.50
2023-03-18T23:32:37.194Z,100174.84
2023-03-18T23:35:26.218Z,100166.84
2023-03-18T23:38:15.598Z,100173.00
2023-03-18T23:41:05.237Z,100177.72
2023-03-18T23:43:57.144Z,100169.09
2023-03-18T23:46:46.511Z,100172.81
2023-03-18T23:49:35.358Z,100174.03
2023-03-18T23:52:23.960Z,100170.75
2023-03-18T23:55:32.665Z,100176.94
2023-03-18T23:58:21.723Z,100177.13
